Airport View

Enter AWOS ICAO identifier for current METAR.

ex. KFNL

KTWF 290253Z AUTO 25006KT 4SM HZ CLR 12/02 A3037 RMK AO2 SLP261 T01220017 53001

29 Sep 2020 03:54

Frequency: 135.025

Phone: 208-733-1878

Other Area AWOS: KJER - - KBYI - KSUN

TAF KTWF 282320Z 2900/2924 VRB05KT P6SM SKC FM290500 18008KT P6SM SKC FM291800 02006KT P6SM SKC